sensor_id;sensor_type;location;lat;lon;timestamp;pressure;altitude;pressure_sealevel;temperature;humidity
32761;BME280;19126;47.472;7.850;2023-08-01T00:00:52;95827.75;;;17.47;100.00
32761;BME280;19126;47.472;7.850;2023-08-01T00:03:19;95823.31;;;17.53;100.00
32761;BME280;19126;47.472;7.850;2023-08-01T00:05:46;95823.78;;;17.50;100.00
32761;BME280;19126;47.472;7.850;2023-08-01T00:08:15;95814.56;;;17.52;100.00
32761;BME280;19126;47.472;7.850;2023-08-01T00:10:42;95815.91;;;17.55;100.00
32761;BME280;19126;47.472;7.850;2023-08-01T00:13:09;95803.69;;;17.54;100.00
32761;BME280;19126;47.472;7.850;2023-08-01T00:15:37;95809.47;;;17.51;100.00
32761;BME280;19126;47.472;7.850;2023-08-01T00:18:04;95802.03;;;17.65;100.00
32761;BME280;19126;47.472;7.850;2023-08-01T00:20:32;95792.34;;;17.58;100.00
32761;BME280;19126;47.472;7.850;2023-08-01T00:22:59;95784.88;;;17.55;100.00
32761;BME280;19126;47.472;7.850;2023-08-01T00:25:28;95785.75;;;17.61;100.00
32761;BME280;19126;47.472;7.850;2023-08-01T00:27:55;95781.97;;;17.57;100.00
32761;BME280;19126;47.472;7.850;2023-08-01T00:30:22;95781.97;;;17.57;100.00
32761;BME280;19126;47.472;7.850;2023-08-01T00:32:50;95782.22;;;17.55;100.00
32761;BME280;19126;47.472;7.850;2023-08-01T00:35:17;95785.44;;;17.57;100.00
32761;BME280;19126;47.472;7.850;2023-08-01T00:37:44;95776.09;;;17.55;100.00
32761;BME280;19126;47.472;7.850;2023-08-01T00:40:11;95775.03;;;17.56;100.00
32761;BME280;19126;47.472;7.850;2023-08-01T00:42:40;95777.56;;;17.63;100.00
32761;BME280;19126;47.472;7.850;2023-08-01T00:45:09;95774.56;;;17.59;100.00
32761;BME280;19126;47.472;7.850;2023-08-01T00:47:37;95774.56;;;17.59;100.00
32761;BME280;19126;47.472;7.850;2023-08-01T00:50:06;95770.72;;;17.67;100.00
32761;BME280;19126;47.472;7.850;2023-08-01T00:52:34;95778.13;;;17.65;100.00
32761;BME280;19126;47.472;7.850;2023-08-01T00:55:01;95755.25;;;17.64;100.00
32761;BME280;19126;47.472;7.850;2023-08-01T00:57:29;95754.53;;;17.68;100.00
32761;BME280;19126;47.472;7.850;2023-08-01T00:59:58;95753.97;;;17.66;100.00
32761;BME280;19126;47.472;7.850;2023-08-01T01:02:25;95747.94;;;17.71;100.00
32761;BME280;19126;47.472;7.850;2023-08-01T01:04:53;95739.31;;;17.81;100.00
32761;BME280;19126;47.472;7.850;2023-08-01T01:07:22;95737.56;;;17.86;100.00
32761;BME280;19126;47.472;7.850;2023-08-01T01:09:50;95727.50;;;17.89;100.00
32761;BME280;19126;47.472;7.850;2023-08-01T01:12:18;95726.75;;;17.93;100.00
32761;BME280;19126;47.472;7.850;2023-08-01T01:14:45;95727.25;;;18.07;100.00
32761;BME280;19126;47.472;7.850;2023-08-01T01:17:14;95728.59;;;18.10;100.00
32761;BME280;19126;47.472;7.850;2023-08-01T01:19:41;95730.91;;;18.23;100.00
32761;BME280;19126;47.472;7.850;2023-08-01T01:22:10;95731.22;;;18.66;100.00
32761;BME280;19126;47.472;7.850;2023-08-01T01:24:40;95726.69;;;18.89;92.47
32761;BME280;19126;47.472;7.850;2023-08-01T01:27:11;95717.34;;;19.09;90.94
32761;BME280;19126;47.472;7.850;2023-08-01T01:29:40;95713.97;;;19.18;90.06
32761;BME280;19126;47.472;7.850;2023-08-01T01:32:10;95724.47;;;19.30;88.41
32761;BME280;19126;47.472;7.850;2023-08-01T01:34:38;95724.50;;;19.36;88.90
32761;BME280;19126;47.472;7.850;2023-08-01T01:37:05;95718.75;;;19.49;87.51
32761;BME280;19126;47.472;7.850;2023-08-01T01:39:34;95708.22;;;19.65;86.08
32761;BME280;19126;47.472;7.850;2023-08-01T01:42:01;95705.97;;;19.79;84.69
32761;BME280;19126;47.472;7.850;2023-08-01T01:44:29;95713.16;;;19.83;84.80
32761;BME280;19126;47.472;7.850;2023-08-01T01:46:56;95714.03;;;19.89;83.79
32761;BME280;19126;47.472;7.850;2023-08-01T01:49:23;95708.22;;;19.92;84.71
32761;BME280;19126;47.472;7.850;2023-08-01T01:51:52;95704.00;;;20.01;83.71
32761;BME280;19126;47.472;7.850;2023-08-01T01:54:19;95701.84;;;19.98;82.59
32761;BME280;19126;47.472;7.850;2023-08-01T01:56:48;95708.25;;;19.97;83.96
32761;BME280;19126;47.472;7.850;2023-08-01T01:59:15;95699.56;;;20.12;81.06
32761;BME280;19126;47.472;7.850;2023-08-01T02:01:42;95694.50;;;20.16;82.33
32761;BME280;19126;47.472;7.850;2023-08-01T02:04:09;95697.28;;;20.42;78.71
32761;BME280;19126;47.472;7.850;2023-08-01T02:06:37;95712.00;;;20.49;80.57
32761;BME280;19126;47.472;7.850;2023-08-01T02:09:04;95716.28;;;20.50;79.83
32761;BME280;19126;47.472;7.850;2023-08-01T02:11:32;95710.94;;;20.50;79.51
32761;BME280;19126;47.472;7.850;2023-08-01T02:14:00;95720.03;;;20.55;78.70
32761;BME280;19126;47.472;7.850;2023-08-01T02:16:29;95702.13;;;20.50;79.28
32761;BME280;19126;47.472;7.850;2023-08-01T02:18:56;95704.25;;;20.48;79.01
32761;BME280;19126;47.472;7.850;2023-08-01T02:21:23;95709.06;;;20.51;78.63
32761;BME280;19126;47.472;7.850;2023-08-01T02:23:50;95708.25;;;20.45;80.13
32761;BME280;19126;47.472;7.850;2023-08-01T02:26:18;95708.78;;;20.47;78.42
32761;BME280;19126;47.472;7.850;2023-08-01T02:28:47;95721.09;;;20.54;77.98
32761;BME280;19126;47.472;7.850;2023-08-01T02:31:15;95723.50;;;20.60;78.10
32761;BME280;19126;47.472;7.850;2023-08-01T02:33:43;95720.59;;;20.62;76.90
32761;BME280;19126;47.472;7.850;2023-08-01T02:36:10;95720.84;;;20.60;77.28
32761;BME280;19126;47.472;7.850;2023-08-01T02:38:38;95711.03;;;20.71;74.45
32761;BME280;19126;47.472;7.850;2023-08-01T02:41:05;95733.69;;;20.74;76.13
32761;BME280;19126;47.472;7.850;2023-08-01T02:43:32;95715.81;;;20.69;77.53
32761;BME280;19126;47.472;7.850;2023-08-01T02:46:02;95732.06;;;20.62;78.01
32761;BME280;19126;47.472;7.850;2023-08-01T02:48:32;95721.88;;;20.54;77.73
32761;BME280;19126;47.472;7.850;2023-08-01T02:51:01;95729.06;;;20.48;78.44
32761;BME280;19126;47.472;7.850;2023-08-01T02:53:28;95722.09;;;20.42;79.82
32761;BME280;19126;47.472;7.850;2023-08-01T02:55:56;95728.75;;;20.40;78.94
32761;BME280;19126;47.472;7.850;2023-08-01T02:58:23;95731.41;;;20.40;77.87
32761;BME280;19126;47.472;7.850;2023-08-01T03:00:50;95731.44;;;20.45;76.20
32761;BME280;19126;47.472;7.850;2023-08-01T03:03:18;95737.56;;;20.40;75.57
32761;BME280;19126;47.472;7.850;2023-08-01T03:05:46;95734.41;;;20.48;74.88
32761;BME280;19126;47.472;7.850;2023-08-01T03:08:14;95725.94;;;20.67;72.82
32761;BME280;19126;47.472;7.850;2023-08-01T03:10:41;95727.63;;;20.78;71.61
32761;BME280;19126;47.472;7.850;2023-08-01T03:13:08;95731.53;;;20.65;73.92
32761;BME280;19126;47.472;7.850;2023-08-01T03:15:36;95737.88;;;20.54;76.07
32761;BME280;19126;47.472;7.850;2023-08-01T03:18:03;95733.09;;;20.56;77.37
32761;BME280;19126;47.472;7.850;2023-08-01T03:20:30;95731.00;;;20.63;72.40
32761;BME280;19126;47.472;7.850;2023-08-01T03:22:59;95745.28;;;20.42;74.52
32761;BME280;19126;47.472;7.850;2023-08-01T03:25:26;95750.84;;;20.30;76.21
32761;BME280;19126;47.472;7.850;2023-08-01T03:27:54;95753.50;;;20.30;70.61
32761;BME280;19126;47.472;7.850;2023-08-01T03:30:21;95746.28;;;20.25;68.27
32761;BME280;19126;47.472;7.850;2023-08-01T03:32:49;95748.88;;;20.15;69.45
32761;BME280;19126;47.472;7.850;2023-08-01T03:35:15;95745.06;;;20.48;65.46
32761;BME280;19126;47.472;7.850;2023-08-01T03:37:42;95747.97;;;20.42;66.75
32761;BME280;19126;47.472;7.850;2023-08-01T03:40:11;95754.16;;;20.53;65.72
32761;BME280;19126;47.472;7.850;2023-08-01T03:42:38;95743.44;;;20.42;67.23
32761;BME280;19126;47.472;7.850;2023-08-01T03:45:07;95736.44;;;20.31;67.17
32761;BME280;19126;47.472;7.850;2023-08-01T03:47:35;95739.63;;;20.28;67.73
32761;BME280;19126;47.472;7.850;2023-08-01T03:50:02;95741.63;;;20.53;65.54
32761;BME280;19126;47.472;7.850;2023-08-01T03:52:30;95722.88;;;20.38;66.12
32761;BME280;19126;47.472;7.850;2023-08-01T03:54:57;95739.06;;;20.20;70.63
32761;BME280;19126;47.472;7.850;2023-08-01T03:57:26;95740.00;;;19.99;75.37
32761;BME280;19126;47.472;7.850;2023-08-01T03:59:53;95743.25;;;19.79;79.23
32761;BME280;19126;47.472;7.850;2023-08-01T04:02:20;95737.81;;;19.63;81.77
32761;BME280;19126;47.472;7.850;2023-08-01T04:04:48;95733.03;;;19.65;80.96
32761;BME280;19126;47.472;7.850;2023-08-01T04:07:15;95731.28;;;19.48;80.77
32761;BME280;19126;47.472;7.850;2023-08-01T04:09:42;95742.59;;;19.33;85.99
32761;BME280;19126;47.472;7.850;2023-08-01T04:12:10;95761.41;;;19.22;85.55
32761;BME280;19126;47.472;7.850;2023-08-01T04:14:38;95748.22;;;19.10;91.78
32761;BME280;19126;47.472;7.850;2023-08-01T04:17:06;95747.97;;;18.89;94.74
32761;BME280;19126;47.472;7.850;2023-08-01T04:19:33;95751.94;;;18.64;100.00
32761;BME280;19126;47.472;7.850;2023-08-01T04:22:00;95745.03;;;18.46;100.00
32761;BME280;19126;47.472;7.850;2023-08-01T04:24:28;95739.78;;;18.29;100.00
32761;BME280;19126;47.472;7.850;2023-08-01T04:26:57;95728.13;;;18.13;100.00
32761;BME280;19126;47.472;7.850;2023-08-01T04:29:24;95730.97;;;18.06;100.00
32761;BME280;19126;47.472;7.850;2023-08-01T04:31:53;95718.84;;;17.98;100.00
32761;BME280;19126;47.472;7.850;2023-08-01T04:34:20;95736.25;;;17.89;100.00
32761;BME280;19126;47.472;7.850;2023-08-01T04:36:48;95727.72;;;17.87;100.00
32761;BME280;19126;47.472;7.850;2023-08-01T04:39:15;95728.47;;;17.82;100.00
32761;BME280;19126;47.472;7.850;2023-08-01T04:41:42;95724.91;;;17.77;100.00
32761;BME280;19126;47.472;7.850;2023-08-01T04:44:09;95718.25;;;17.74;100.00
32761;BME280;19126;47.472;7.850;2023-08-01T04:46:37;95715.81;;;17.72;100.00
32761;BME280;19126;47.472;7.850;2023-08-01T04:49:05;95705.09;;;17.67;100.00
32761;BME280;19126;47.472;7.850;2023-08-01T04:51:34;95709.84;;;17.65;100.00
32761;BME280;19126;47.472;7.850;2023-08-01T04:54:01;95713.25;;;17.61;100.00
32761;BME280;19126;47.472;7.850;2023-08-01T04:56:29;95712.44;;;17.60;100.00
32761;BME280;19126;47.472;7.850;2023-08-01T04:58:56;95725.00;;;17.65;100.00
32761;BME280;19126;47.472;7.850;2023-08-01T05:01:23;95722.25;;;17.60;100.00
32761;BME280;19126;47.472;7.850;2023-08-01T05:03:51;95723.78;;;17.55;100.00
32761;BME280;19126;47.472;7.850;2023-08-01T05:06:19;95733.84;;;17.53;100.00
32761;BME280;19126;47.472;7.850;2023-08-01T05:08:46;95727.72;;;17.53;100.00
32761;BME280;19126;47.472;7.850;2023-08-01T05:11:14;95740.44;;;17.51;100.00
32761;BME280;19126;47.472;7.850;2023-08-01T05:13:41;95731.66;;;17.50;100.00
32761;BME280;19126;47.472;7.850;2023-08-01T05:16:08;95736.97;;;17.50;100.00
32761;BME280;19126;47.472;7.850;2023-08-01T05:18:35;95738.03;;;17.49;100.00
32761;BME280;19126;47.472;7.850;2023-08-01T05:21:03;95726.94;;;17.52;100.00
32761;BME280;19126;47.472;7.850;2023-08-01T05:23:32;95730.38;;;17.53;100.00
32761;BME280;19126;47.472;7.850;2023-08-01T05:25:59;95718.41;;;17.50;100.00
32761;BME280;19126;47.472;7.850;2023-08-01T05:28:26;95715.19;;;17.48;100.00
32761;BME280;19126;47.472;7.850;2023-08-01T05:30:54;95715.41;;;17.47;100.00
32761;BME280;19126;47.472;7.850;2023-08-01T05:33:21;95716.94;;;17.42;100.00
32761;BME280;19126;47.472;7.850;2023-08-01T05:35:49;95709.69;;;17.38;100.00
32761;BME280;19126;47.472;7.850;2023-08-01T05:38:16;95709.22;;;17.41;100.00
32761;BME280;19126;47.472;7.850;2023-08-01T05:40:45;95729.47;;;17.30;100.00
32761;BME280;19126;47.472;7.850;2023-08-01T05:43:12;95739.44;;;17.23;100.00
32761;BME280;19126;47.472;7.850;2023-08-01T05:45:39;95744.38;;;17.19;100.00
32761;BME280;19126;47.472;7.850;2023-08-01T05:48:07;95751.78;;;17.17;100.00
32761;BME280;19126;47.472;7.850;2023-08-01T05:50:34;95753.56;;;17.11;100.00
32761;BME280;19126;47.472;7.850;2023-08-01T05:53:01;95757.81;;;17.12;99.58
32761;BME280;19126;47.472;7.850;2023-08-01T05:55:28;95764.75;;;17.13;96.65
32761;BME280;19126;47.472;7.850;2023-08-01T05:57:57;95757.72;;;17.07;94.59
32761;BME280;19126;47.472;7.850;2023-08-01T06:00:24;95752.53;;;17.01;90.28
32761;BME280;19126;47.472;7.850;2023-08-01T06:02:52;95741.72;;;17.02;87.74
32761;BME280;19126;47.472;7.850;2023-08-01T06:05:19;95727.88;;;17.00;85.04
32761;BME280;19126;47.472;7.850;2023-08-01T06:07:46;95707.53;;;17.06;85.78
32761;BME280;19126;47.472;7.850;2023-08-01T06:10:14;95686.47;;;16.99;85.61
32761;BME280;19126;47.472;7.850;2023-08-01T06:12:41;95689.78;;;16.94;81.28
32761;BME280;19126;47.472;7.850;2023-08-01T06:15:10;95685.69;;;16.87;76.60
32761;BME280;19126;47.472;7.850;2023-08-01T06:17:38;95667.69;;;16.89;73.81
32761;BME280;19126;47.472;7.850;2023-08-01T06:20:07;95641.47;;;16.92;75.63
32761;BME280;19126;47.472;7.850;2023-08-01T06:22:34;95640.06;;;16.73;79.30
32761;BME280;19126;47.472;7.850;2023-08-01T06:25:01;95637.00;;;16.64;79.17
32761;BME280;19126;47.472;7.850;2023-08-01T06:27:29;95642.53;;;16.62;77.00
32761;BME280;19126;47.472;7.850;2023-08-01T06:29:56;95631.34;;;16.60;75.42
32761;BME280;19126;47.472;7.850;2023-08-01T06:32:25;95630.56;;;16.60;74.21
32761;BME280;19126;47.472;7.850;2023-08-01T06:34:52;95633.78;;;16.62;72.81
32761;BME280;19126;47.472;7.850;2023-08-01T06:37:20;95642.53;;;16.62;71.56
32761;BME280;19126;47.472;7.850;2023-08-01T06:39:47;95642.31;;;16.64;71.42
32761;BME280;19126;47.472;7.850;2023-08-01T06:42:14;95637.78;;;16.64;70.25
32761;BME280;19126;47.472;7.850;2023-08-01T06:44:42;95652.56;;;16.60;72.76
32761;BME280;19126;47.472;7.850;2023-08-01T06:47:10;95650.84;;;16.66;76.21
32761;BME280;19126;47.472;7.850;2023-08-01T06:49:38;95639.03;;;16.74;76.55
32761;BME280;19126;47.472;7.850;2023-08-01T06:52:07;95657.59;;;16.74;93.86
32761;BME280;19126;47.472;7.850;2023-08-01T06:54:34;95649.41;;;16.75;100.00
32761;BME280;19126;47.472;7.850;2023-08-01T06:57:02;95646.84;;;16.80;100.00
32761;BME280;19126;47.472;7.850;2023-08-01T06:59:29;95645.06;;;16.86;100.00
32761;BME280;19126;47.472;7.850;2023-08-01T07:01:56;95646.84;;;16.80;100.00
32761;BME280;19126;47.472;7.850;2023-08-01T07:04:24;95643.38;;;16.80;100.00
32761;BME280;19126;47.472;7.850;2023-08-01T07:06:52;95662.09;;;16.73;100.00
32761;BME280;19126;47.472;7.850;2023-08-01T07:09:20;95650.19;;;16.76;100.00
32761;BME280;19126;47.472;7.850;2023-08-01T07:11:47;95665.78;;;16.72;100.00
32761;BME280;19126;47.472;7.850;2023-08-01T07:14:14;95671.38;;;16.88;100.00
32761;BME280;19126;47.472;7.850;2023-08-01T07:16:42;95662.19;;;16.78;100.00
32761;BME280;19126;47.472;7.850;2023-08-01T07:19:09;95671.78;;;16.67;100.00
32761;BME280;19126;47.472;7.850;2023-08-01T07:21:36;95681.97;;;16.59;100.00
32761;BME280;19126;47.472;7.850;2023-08-01T07:24:05;95692.50;;;16.53;100.00
32761;BME280;19126;47.472;7.850;2023-08-01T07:26:32;95693.94;;;16.61;100.00
32761;BME280;19126;47.472;7.850;2023-08-01T07:29:00;95683.22;;;16.68;100.00
32761;BME280;19126;47.472;7.850;2023-08-01T07:31:27;95675.88;;;16.58;100.00
32761;BME280;19126;47.472;7.850;2023-08-01T07:33:54;95670.81;;;16.57;100.00
32761;BME280;19126;47.472;7.850;2023-08-01T07:36:22;95681.63;;;16.55;100.00
32761;BME280;19126;47.472;7.850;2023-08-01T07:38:49;95674.72;;;16.54;100.00
32761;BME280;19126;47.472;7.850;2023-08-01T07:41:17;95669.88;;;16.51;100.00
32761;BME280;19126;47.472;7.850;2023-08-01T07:43:45;95668.28;;;16.50;100.00
32761;BME280;19126;47.472;7.850;2023-08-01T07:46:12;95680.03;;;16.54;95.69
32761;BME280;19126;47.472;7.850;2023-08-01T07:48:39;95680.84;;;16.54;90.51
32761;BME280;19126;47.472;7.850;2023-08-01T07:51:07;95692.25;;;16.55;86.30
32761;BME280;19126;47.472;7.850;2023-08-01T07:53:35;95690.50;;;16.61;82.76
32761;BME280;19126;47.472;7.850;2023-08-01T07:56:03;95677.09;;;16.67;81.17
32761;BME280;19126;47.472;7.850;2023-08-01T07:58:35;95681.44;;;16.74;84.52
32761;BME280;19126;47.472;7.850;2023-08-01T08:01:04;95689.75;;;16.77;86.92
32761;BME280;19126;47.472;7.850;2023-08-01T08:03:31;95683.97;;;16.80;91.18
32761;BME280;19126;47.472;7.850;2023-08-01T08:05:58;95683.88;;;16.75;92.93
32761;BME280;19126;47.472;7.850;2023-08-01T08:08:26;95681.22;;;16.75;91.33
32761;BME280;19126;47.472;7.850;2023-08-01T08:10:54;95675.47;;;16.78;87.32
32761;BME280;19126;47.472;7.850;2023-08-01T08:13:21;95676.50;;;16.77;85.31
32761;BME280;19126;47.472;7.850;2023-08-01T08:15:51;95686.84;;;16.79;83.22
32761;BME280;19126;47.472;7.850;2023-08-01T08:18:18;95667.91;;;16.87;82.23
32761;BME280;19126;47.472;7.850;2023-08-01T08:20:46;95680.38;;;16.87;85.64
32761;BME280;19126;47.472;7.850;2023-08-01T08:23:13;95678.53;;;16.87;87.37
32761;BME280;19126;47.472;7.850;2023-08-01T08:25:41;95688.81;;;16.83;85.51
32761;BME280;19126;47.472;7.850;2023-08-01T08:28:11;95698.84;;;16.81;82.32
32761;BME280;19126;47.472;7.850;2023-08-01T08:30:39;95706.94;;;16.75;84.59
32761;BME280;19126;47.472;7.850;2023-08-01T08:33:08;95717.22;;;16.71;82.86
32761;BME280;19126;47.472;7.850;2023-08-01T08:35:36;95717.69;;;16.68;80.25
32761;BME280;19126;47.472;7.850;2023-08-01T08:38:04;95721.72;;;16.70;76.64
32761;BME280;19126;47.472;7.850;2023-08-01T08:40:32;95716.03;;;16.79;78.52
32761;BME280;19126;47.472;7.850;2023-08-01T08:43:02;95707.88;;;16.68;80.84
32761;BME280;19126;47.472;7.850;2023-08-01T08:45:33;95708.72;;;16.57;80.46
32761;BME280;19126;47.472;7.850;2023-08-01T08:48:13;95708.63;;;16.52;78.06
32761;BME280;19126;47.472;7.850;2023-08-01T08:50:46;95722.03;;;16.45;75.31
32761;BME280;19126;47.472;7.850;2023-08-01T08:53:14;95711.16;;;16.47;74.31
32761;BME280;19126;47.472;7.850;2023-08-01T08:55:42;95716.38;;;16.41;70.24
32761;BME280;19126;47.472;7.850;2023-08-01T08:58:10;95726.28;;;16.46;67.50
32761;BME280;19126;47.472;7.850;2023-08-01T09:00:38;95722.81;;;16.46;64.24
32761;BME280;19126;47.472;7.850;2023-08-01T09:03:06;95715.31;;;16.54;62.24
32761;BME280;19126;47.472;7.850;2023-08-01T09:05:37;95717.13;;;16.66;59.01
32761;BME280;19126;47.472;7.850;2023-08-01T09:08:16;95719.97;;;16.76;54.68
32761;BME280;19126;47.472;7.850;2023-08-01T09:10:44;95713.34;;;16.91;51.53
32761;BME280;19126;47.472;7.850;2023-08-01T09:13:12;95709.72;;;17.09;50.05
32761;BME280;19126;47.472;7.850;2023-08-01T09:15:41;95710.66;;;17.32;50.86
32761;BME280;19126;47.472;7.850;2023-08-01T09:18:09;95710.50;;;17.90;49.27
32761;BME280;19126;47.472;7.850;2023-08-01T09:20:47;95721.09;;;18.24;50.95
32761;BME280;19126;47.472;7.850;2023-08-01T09:23:17;95709.41;;;18.47;54.82
32761;BME280;19126;47.472;7.850;2023-08-01T09:25:44;95707.28;;;18.66;59.76
32761;BME280;19126;47.472;7.850;2023-08-01T09:28:17;95707.31;;;18.71;69.90
32761;BME280;19126;47.472;7.850;2023-08-01T09:30:48;95714.53;;;18.71;83.28
32761;BME280;19126;47.472;7.850;2023-08-01T09:33:16;95705.97;;;18.69;88.91
32761;BME280;19126;47.472;7.850;2023-08-01T09:35:44;95716.13;;;18.72;91.13
32761;BME280;19126;47.472;7.850;2023-08-01T09:38:13;95710.47;;;18.68;90.89
32761;BME280;19126;47.472;7.850;2023-08-01T09:40:44;95724.84;;;18.67;92.91
32761;BME280;19126;47.472;7.850;2023-08-01T09:43:13;95729.25;;;18.56;93.50
32761;BME280;19126;47.472;7.850;2023-08-01T09:45:50;95728.09;;;18.52;89.42
32761;BME280;19126;47.472;7.850;2023-08-01T09:48:25;95725.44;;;18.52;87.62
32761;BME280;19126;47.472;7.850;2023-08-01T09:51:06;95721.66;;;18.48;87.33
32761;BME280;19126;47.472;7.850;2023-08-01T09:53:34;95720.88;;;18.48;87.13
32761;BME280;19126;47.472;7.850;2023-08-01T09:56:03;95729.41;;;18.50;90.21
32761;BME280;19126;47.472;7.850;2023-08-01T09:58:33;95717.56;;;18.57;94.94
32761;BME280;19126;47.472;7.850;2023-08-01T10:01:01;95721.16;;;18.51;95.28
32761;BME280;19126;47.472;7.850;2023-08-01T10:03:29;95715.63;;;18.53;91.23
32761;BME280;19126;47.472;7.850;2023-08-01T10:05:58;95713.69;;;18.48;90.89
32761;BME280;19126;47.472;7.850;2023-08-01T10:08:26;95712.34;;;18.45;91.90
32761;BME280;19126;47.472;7.850;2023-08-01T10:10:58;95720.06;;;18.47;92.72
32761;BME280;19126;47.472;7.850;2023-08-01T10:13:27;95727.19;;;18.41;92.11
32761;BME280;19126;47.472;7.850;2023-08-01T10:15:55;95723.97;;;18.39;94.65
32761;BME280;19126;47.472;7.850;2023-08-01T10:18:23;95721.38;;;18.44;100.00
32761;BME280;19126;47.472;7.850;2023-08-01T10:20:54;95733.13;;;18.49;100.00
32761;BME280;19126;47.472;7.850;2023-08-01T10:23:21;95726.13;;;18.42;100.00
32761;BME280;19126;47.472;7.850;2023-08-01T10:25:50;95733.13;;;18.49;100.00
32761;BME280;19126;47.472;7.850;2023-08-01T10:28:18;95725.22;;;18.54;100.00
32761;BME280;19126;47.472;7.850;2023-08-01T10:30:46;95739.06;;;18.56;100.00
32761;BME280;19126;47.472;7.850;2023-08-01T10:33:14;95723.59;;;18.53;100.00
32761;BME280;19126;47.472;7.850;2023-08-01T10:35:41;95721.72;;;18.53;100.00
32761;BME280;19126;47.472;7.850;2023-08-01T10:38:11;95709.47;;;18.52;100.00
32761;BME280;19126;47.472;7.850;2023-08-01T10:40:40;95711.22;;;18.41;100.00
32761;BME280;19126;47.472;7.850;2023-08-01T10:43:20;95698.44;;;18.38;100.00
32761;BME280;19126;47.472;7.850;2023-08-01T10:46:00;95696.00;;;18.37;100.00
32761;BME280;19126;47.472;7.850;2023-08-01T10:48:28;95703.91;;;18.31;100.00
32761;BME280;19126;47.472;7.850;2023-08-01T10:50:55;95707.88;;;18.29;98.81
32761;BME280;19126;47.472;7.850;2023-08-01T10:53:23;95723.00;;;18.28;98.43
32761;BME280;19126;47.472;7.850;2023-08-01T10:55:51;95726.72;;;18.27;99.83
32761;BME280;19126;47.472;7.850;2023-08-01T10:58:19;95726.59;;;18.17;100.00
32761;BME280;19126;47.472;7.850;2023-08-01T11:00:46;95740.44;;;18.19;100.00
32761;BME280;19126;47.472;7.850;2023-08-01T11:03:35;95762.19;;;18.16;100.00
32761;BME280;19126;47.472;7.850;2023-08-01T11:06:02;95777.91;;;18.18;100.00
32761;BME280;19126;47.472;7.850;2023-08-01T11:08:35;95781.59;;;18.16;96.44
32761;BME280;19126;47.472;7.850;2023-08-01T11:11:05;95774.50;;;18.22;93.13
32761;BME280;19126;47.472;7.850;2023-08-01T11:13:33;95781.34;;;18.18;100.00
32761;BME280;19126;47.472;7.850;2023-08-01T11:16:02;95776.84;;;18.19;99.06
32761;BME280;19126;47.472;7.850;2023-08-01T11:18:30;95769.19;;;18.22;98.50
32761;BME280;19126;47.472;7.850;2023-08-01T11:21:08;95757.84;;;18.27;99.88
32761;BME280;19126;47.472;7.850;2023-08-01T11:23:36;95764.63;;;18.18;99.63
32761;BME280;19126;47.472;7.850;2023-08-01T11:26:07;95760.34;;;18.16;97.31
32761;BME280;19126;47.472;7.850;2023-08-01T11:28:35;95752.19;;;18.23;99.77
32761;BME280;19126;47.472;7.850;2023-08-01T11:31:11;95749.03;;;18.26;98.14
32761;BME280;19126;47.472;7.850;2023-08-01T11:33:39;95750.72;;;18.33;100.00
32761;BME280;19126;47.472;7.850;2023-08-01T11:36:08;95745.47;;;18.38;99.71
32761;BME280;19126;47.472;7.850;2023-08-01T11:38:36;95747.09;;;18.61;95.61
32761;BME280;19126;47.472;7.850;2023-08-01T11:41:04;95748.72;;;18.84;100.00
32761;BME280;19126;47.472;7.850;2023-08-01T11:43:38;95751.25;;;18.96;100.00
32761;BME280;19126;47.472;7.850;2023-08-01T11:46:06;95744.78;;;19.09;100.00
32761;BME280;19126;47.472;7.850;2023-08-01T11:48:35;95734.06;;;19.04;100.00
32761;BME280;19126;47.472;7.850;2023-08-01T11:51:02;95740.84;;;18.95;100.00
32761;BME280;19126;47.472;7.850;2023-08-01T11:53:32;95733.75;;;19.00;100.00
32761;BME280;19126;47.472;7.850;2023-08-01T11:56:04;95725.63;;;19.12;100.00
32761;BME280;19126;47.472;7.850;2023-08-01T11:58:33;95732.13;;;19.22;100.00
32761;BME280;19126;47.472;7.850;2023-08-01T12:01:05;95732.00;;;19.39;100.00
32761;BME280;19126;47.472;7.850;2023-08-01T12:03:42;95727.81;;;19.48;100.00
32761;BME280;19126;47.472;7.850;2023-08-01T12:06:09;95720.38;;;19.50;100.00
32761;BME280;19126;47.472;7.850;2023-08-01T12:08:39;95721.47;;;19.54;100.00
32761;BME280;19126;47.472;7.850;2023-08-01T12:11:17;95715.75;;;19.73;100.00
32761;BME280;19126;47.472;7.850;2023-08-01T12:13:44;95727.41;;;19.94;100.00
32761;BME280;19126;47.472;7.850;2023-08-01T12:16:12;95721.66;;;20.13;100.00
32761;BME280;19126;47.472;7.850;2023-08-01T12:18:41;95722.53;;;20.24;100.00
32761;BME280;19126;47.472;7.850;2023-08-01T12:21:10;95719.69;;;20.41;100.00
32761;BME280;19126;47.472;7.850;2023-08-01T12:23:40;95719.75;;;20.56;100.00
32761;BME280;19126;47.472;7.850;2023-08-01T12:26:07;95725.06;;;20.51;100.00
32761;BME280;19126;47.472;7.850;2023-08-01T12:28:35;95731.75;;;20.54;100.00
32761;BME280;19126;47.472;7.850;2023-08-01T12:31:03;95725.59;;;20.53;100.00
32761;BME280;19126;47.472;7.850;2023-08-01T12:33:31;95732.53;;;20.49;100.00
32761;BME280;19126;47.472;7.850;2023-08-01T12:36:00;95738.69;;;20.55;100.00
32761;BME280;19126;47.472;7.850;2023-08-01T12:38:27;95736.09;;;20.65;100.00
32761;BME280;19126;47.472;7.850;2023-08-01T12:40:56;95736.38;;;20.74;100.00
32761;BME280;19126;47.472;7.850;2023-08-01T12:43:24;95744.13;;;20.75;100.00
32761;BME280;19126;47.472;7.850;2023-08-01T12:45:51;95736.09;;;20.65;100.00
32761;BME280;19126;47.472;7.850;2023-08-01T12:48:19;95745.72;;;20.71;100.00
32761;BME280;19126;47.472;7.850;2023-08-01T12:50:46;95730.50;;;20.72;100.00
32761;BME280;19126;47.472;7.850;2023-08-01T12:53:14;95732.13;;;20.78;100.00
32761;BME280;19126;47.472;7.850;2023-08-01T12:55:43;95743.66;;;20.89;100.00
32761;BME280;19126;47.472;7.850;2023-08-01T12:58:13;95733.50;;;20.81;100.00
32761;BME280;19126;47.472;7.850;2023-08-01T13:00:43;95737.81;;;20.92;100.00